首页
METAR-TAF:

METAR-TAF

机场 :

Wunstorf, 德国

纬度: 52-27N, 经度: 009-26E, 海拔: 57米

当前天气观测

该预报发布于30分钟前的09:20 UTC
风速7节,风向东转东南
温度 19°C
湿度 46%
气压 1025 hPa
能見度: 9000

METAR: ETNW 010920Z AUTO 12007KT 9000 // ////// 19/07 Q1025 ///

时间: 11:50 (09:50 UTC)

预报

该预报发布于17小时和50分钟前的16:00 UTC
预报有效从31日的 17点(UTC)到 01日的 17点(UTC)
风速8节,风向东北
能见度10公里或以上
少量云层高于5000英尺

TAF: ETNW 311600Z 3117/0117 04008KT 9999 NSW FEW050 BY ETGL

超过4000个机场的气象观测和天气预报(METAR&TAF报告)。

可查询的气象台以黄色和红色小点在地图上表示。

将鼠标移到小点上方,可查看气象台名称。

然后点击查看天气观测和预报。

如需切换地图:点击带黑十字的绿色按钮放大地图;点击带横线的绿色按钮缩小地图;或者点击绿色箭头查看邻近地区的地图。


METAR-TAF: